NKS9917 KLAX-KGYR
Flight info
| Callsign | NKS9917 |
|---|---|
| Flight time | 0h 57m |
| Altitude | 37000 |
| Route | DOTSS2 CNERY BLH BXK |
| Aircraft | A321/M-SDE3FGHIRWY/LB1 |
Departure
| Time | 2026-05-05 00:19 |
|---|---|
| Airport | Los Angeles International Airport (KLAX) |
Arrival
| Time | 2026-05-05 01:16 |
|---|---|
| Airport | Phoenix Goodyear Airport (KGYR) |
| Time | Latitude | Longitude | Altitude | Speed | Heading |
|---|---|---|---|---|---|
| 2026-05-04 23:42 | 33.93764 | -118.42958 | 95 ft | 0 kts | 341° |
| 2026-05-05 00:04 | 33.93766 | -118.42959 | 95 ft | 2 kts | 341° |
| 2026-05-05 00:05 | 33.93791 | -118.42969 | 97 ft | 6 kts | 341° |
| 2026-05-05 00:05 | 33.93803 | -118.43002 | 96 ft | 4 kts | 234° |
| 2026-05-05 00:05 | 33.93767 | -118.43030 | 95 ft | 8 kts | 194° |
| 2026-05-05 00:05 | 33.93696 | -118.43025 | 96 ft | 12 kts | 173° |
| 2026-05-05 00:06 | 33.93603 | -118.42999 | 98 ft | 14 kts | 146° |
| 2026-05-05 00:06 | 33.93597 | -118.42880 | 96 ft | 17 kts | 83° |
| 2026-05-05 00:06 | 33.93612 | -118.42726 | 98 ft | 20 kts | 83° |
| 2026-05-05 00:06 | 33.93619 | -118.42542 | 96 ft | 23 kts | 86° |
| 2026-05-05 00:07 | 33.93639 | -118.42339 | 102 ft | 25 kts | 83° |
| 2026-05-05 00:07 | 33.93660 | -118.42128 | 104 ft | 26 kts | 81° |
| 2026-05-05 00:07 | 33.93686 | -118.41894 | 105 ft | 30 kts | 85° |
| 2026-05-05 00:07 | 33.93709 | -118.41637 | 103 ft | 33 kts | 84° |
| 2026-05-05 00:08 | 33.93739 | -118.41350 | 102 ft | 36 kts | 82° |
| 2026-05-05 00:08 | 33.93772 | -118.41040 | 102 ft | 39 kts | 83° |
| 2026-05-05 00:08 | 33.93805 | -118.40706 | 103 ft | 41 kts | 84° |
| 2026-05-05 00:08 | 33.93839 | -118.40378 | 104 ft | 24 kts | 82° |
| 2026-05-05 00:09 | 33.93852 | -118.40257 | 104 ft | 16 kts | 83° |
| 2026-05-05 00:09 | 33.93866 | -118.40110 | 105 ft | 19 kts | 85° |
| 2026-05-05 00:09 | 33.93882 | -118.39938 | 103 ft | 22 kts | 84° |
| 2026-05-05 00:09 | 33.93898 | -118.39794 | 103 ft | 9 kts | 81° |
| 2026-05-05 00:10 | 33.93909 | -118.39698 | 103 ft | 14 kts | 82° |
| 2026-05-05 00:10 | 33.93922 | -118.39565 | 103 ft | 18 kts | 84° |
| 2026-05-05 00:10 | 33.93939 | -118.39401 | 102 ft | 22 kts | 82° |
| 2026-05-05 00:10 | 33.93959 | -118.39202 | 101 ft | 25 kts | 81° |
| 2026-05-05 00:11 | 33.93980 | -118.38996 | 102 ft | 26 kts | 85° |
| 2026-05-05 00:11 | 33.94004 | -118.38774 | 102 ft | 28 kts | 82° |
| 2026-05-05 00:11 | 33.94022 | -118.38591 | 103 ft | 20 kts | 84° |
| 2026-05-05 00:11 | 33.94040 | -118.38415 | 104 ft | 23 kts | 81° |
| 2026-05-05 00:12 | 33.94062 | -118.38211 | 104 ft | 26 kts | 83° |
| 2026-05-05 00:12 | 33.94078 | -118.38047 | 103 ft | 12 kts | 83° |
| 2026-05-05 00:12 | 33.94077 | -118.38022 | 103 ft | 0 kts | 116° |
| 2026-05-05 00:17 | 33.94076 | -118.38020 | 103 ft | 3 kts | 119° |
| 2026-05-05 00:17 | 33.94052 | -118.38004 | 106 ft | 3 kts | 164° |
| 2026-05-05 00:18 | 33.94039 | -118.38000 | 107 ft | 3 kts | 168° |
| 2026-05-05 00:18 | 33.94003 | -118.38005 | 109 ft | 5 kts | 208° |
| 2026-05-05 00:18 | 33.93983 | -118.38051 | 110 ft | 8 kts | 257° |
| 2026-05-05 00:18 | 33.93953 | -118.38321 | 108 ft | 78 kts | 263° |
| 2026-05-05 00:19 | 33.93847 | -118.39337 | 200 ft | 154 kts | 260° |
| 2026-05-05 00:19 | 33.93699 | -118.40604 | 1213 ft | 152 kts | 258° |
| 2026-05-05 00:19 | 33.93458 | -118.41849 | 2306 ft | 152 kts | 253° |
| 2026-05-05 00:19 | 33.93163 | -118.43051 | 3287 ft | 152 kts | 257° |
| 2026-05-05 00:20 | 33.93028 | -118.44401 | 3898 ft | 173 kts | 264° |
| 2026-05-05 00:20 | 33.92805 | -118.45918 | 4410 ft | 196 kts | 250° |
| 2026-05-05 00:20 | 33.92074 | -118.47425 | 4820 ft | 222 kts | 237° |
| 2026-05-05 00:20 | 33.91058 | -118.49008 | 4989 ft | 252 kts | 226° |
| 2026-05-05 00:21 | 33.89487 | -118.50053 | 5759 ft | 268 kts | 197° |
| 2026-05-05 00:21 | 33.87626 | -118.50368 | 6961 ft | 272 kts | 188° |
| 2026-05-05 00:21 | 33.86372 | -118.50512 | 7773 ft | 273 kts | 187° |
| 2026-05-05 00:21 | 33.83829 | -118.50759 | 9439 ft | 275 kts | 187° |
| 2026-05-05 00:22 | 33.82559 | -118.50874 | 10220 ft | 278 kts | 187° |
| 2026-05-05 00:22 | 33.79856 | -118.51122 | 11039 ft | 307 kts | 187° |
| 2026-05-05 00:22 | 33.78401 | -118.51258 | 11630 ft | 313 kts | 187° |
| 2026-05-05 00:22 | 33.75493 | -118.51533 | 12955 ft | 321 kts | 187° |
| 2026-05-05 00:23 | 33.73226 | -118.51476 | 13908 ft | 332 kts | 173° |
| 2026-05-05 00:23 | 33.71714 | -118.50938 | 14484 ft | 341 kts | 160° |
| 2026-05-05 00:23 | 33.69707 | -118.49353 | 15385 ft | 354 kts | 140° |
| 2026-05-05 00:23 | 33.68228 | -118.46934 | 16274 ft | 368 kts | 120° |
| 2026-05-05 00:24 | 33.67311 | -118.44035 | 17191 ft | 374 kts | 114° |
| 2026-05-05 00:24 | 33.66441 | -118.41061 | 18097 ft | 379 kts | 114° |
| 2026-05-05 00:24 | 33.65560 | -118.38053 | 18888 ft | 385 kts | 114° |
| 2026-05-05 00:24 | 33.64782 | -118.34977 | 19591 ft | 396 kts | 107° |
| 2026-05-05 00:25 | 33.64450 | -118.31641 | 20294 ft | 409 kts | 95° |
| 2026-05-05 00:25 | 33.64456 | -118.28187 | 20986 ft | 417 kts | 94° |
| 2026-05-05 00:25 | 33.64468 | -118.24683 | 21676 ft | 424 kts | 94° |
| 2026-05-05 00:25 | 33.64474 | -118.21105 | 22360 ft | 431 kts | 94° |
| 2026-05-05 00:26 | 33.64475 | -118.17486 | 23056 ft | 438 kts | 95° |
| 2026-05-05 00:26 | 33.64474 | -118.13793 | 23698 ft | 446 kts | 95° |
| 2026-05-05 00:26 | 33.64470 | -118.10058 | 24285 ft | 452 kts | 95° |
| 2026-05-05 00:26 | 33.64463 | -118.06261 | 24890 ft | 458 kts | 96° |
| 2026-05-05 00:27 | 33.64454 | -118.02411 | 25519 ft | 463 kts | 97° |
| 2026-05-05 00:27 | 33.64445 | -117.98528 | 26108 ft | 469 kts | 97° |
| 2026-05-05 00:27 | 33.64438 | -117.94594 | 26679 ft | 474 kts | 97° |
| 2026-05-05 00:27 | 33.64430 | -117.90675 | 27248 ft | 479 kts | 98° |
| 2026-05-05 00:28 | 33.64423 | -117.86649 | 27783 ft | 484 kts | 98° |
| 2026-05-05 00:28 | 33.64402 | -117.82588 | 28315 ft | 487 kts | 101° |
| 2026-05-05 00:28 | 33.64051 | -117.78573 | 28846 ft | 479 kts | 111° |
| 2026-05-05 00:28 | 33.63244 | -117.74732 | 29374 ft | 473 kts | 118° |
| 2026-05-05 00:29 | 33.62299 | -117.70931 | 29931 ft | 477 kts | 119° |
| 2026-05-05 00:29 | 33.61350 | -117.67110 | 30428 ft | 481 kts | 119° |
| 2026-05-05 00:29 | 33.60391 | -117.63240 | 30913 ft | 485 kts | 119° |
| 2026-05-05 00:29 | 33.59431 | -117.59357 | 31370 ft | 487 kts | 119° |
| 2026-05-05 00:30 | 33.58468 | -117.55453 | 31965 ft | 487 kts | 120° |
| 2026-05-05 00:30 | 33.57512 | -117.51564 | 32644 ft | 485 kts | 120° |
| 2026-05-05 00:30 | 33.56562 | -117.47692 | 33285 ft | 483 kts | 120° |
| 2026-05-05 00:30 | 33.55611 | -117.43845 | 33949 ft | 480 kts | 121° |
| 2026-05-05 00:31 | 33.54663 | -117.40023 | 34528 ft | 478 kts | 121° |
| 2026-05-05 00:31 | 33.53717 | -117.36214 | 35057 ft | 477 kts | 121° |
| 2026-05-05 00:31 | 33.52768 | -117.32412 | 35587 ft | 476 kts | 121° |
| 2026-05-05 00:31 | 33.51817 | -117.28617 | 36079 ft | 475 kts | 121° |
| 2026-05-05 00:32 | 33.50912 | -117.24794 | 36557 ft | 483 kts | 116° |
| 2026-05-05 00:32 | 33.50430 | -117.20737 | 36930 ft | 503 kts | 105° |
| 2026-05-05 00:32 | 33.50343 | -117.16520 | 37010 ft | 504 kts | 103° |
| 2026-05-05 00:32 | 33.50307 | -117.12371 | 37022 ft | 492 kts | 103° |
| 2026-05-05 00:33 | 33.50285 | -117.08304 | 37014 ft | 486 kts | 103° |
| 2026-05-05 00:33 | 33.50203 | -117.00248 | 37006 ft | 482 kts | 104° |
| 2026-05-05 00:34 | 33.50072 | -116.92217 | 37004 ft | 482 kts | 104° |
| 2026-05-05 00:34 | 33.49932 | -116.84191 | 36998 ft | 482 kts | 104° |
| 2026-05-05 00:35 | 33.49811 | -116.76159 | 36978 ft | 483 kts | 104° |
| 2026-05-05 00:35 | 33.49688 | -116.68117 | 36969 ft | 483 kts | 105° |
| 2026-05-05 00:36 | 33.49543 | -116.60077 | 36964 ft | 483 kts | 105° |
| 2026-05-05 00:36 | 33.49389 | -116.52076 | 36948 ft | 484 kts | 105° |
| 2026-05-05 00:37 | 33.49239 | -116.43994 | 36934 ft | 485 kts | 105° |
| 2026-05-05 00:37 | 33.49104 | -116.35884 | 36918 ft | 488 kts | 105° |
| 2026-05-05 00:38 | 33.48994 | -116.27724 | 36926 ft | 491 kts | 104° |
| 2026-05-05 00:38 | 33.48891 | -116.19589 | 36886 ft | 486 kts | 105° |
| 2026-05-05 00:39 | 33.48750 | -116.11495 | 36874 ft | 486 kts | 105° |
| 2026-05-05 00:39 | 33.48964 | -116.03288 | 36867 ft | 508 kts | 91° |
| 2026-05-05 00:39 | 33.49838 | -115.99125 | 36866 ft | 523 kts | 79° |
| 2026-05-05 00:40 | 33.51061 | -115.95002 | 36863 ft | 526 kts | 78° |
| 2026-05-05 00:40 | 33.53488 | -115.86784 | 36864 ft | 526 kts | 79° |
| 2026-05-05 00:41 | 33.55901 | -115.78503 | 36876 ft | 527 kts | 79° |
| 2026-05-05 00:41 | 33.58316 | -115.70213 | 36878 ft | 526 kts | 79° |
| 2026-05-05 00:42 | 33.60712 | -115.61918 | 36887 ft | 524 kts | 81° |
| 2026-05-05 00:42 | 33.61510 | -115.57717 | 36889 ft | 507 kts | 95° |
| 2026-05-05 00:42 | 33.61657 | -115.53583 | 36893 ft | 489 kts | 105° |
| 2026-05-05 00:43 | 33.61468 | -115.45416 | 36892 ft | 490 kts | 105° |
| 2026-05-05 00:43 | 33.61274 | -115.37246 | 36899 ft | 489 kts | 105° |
| 2026-05-05 00:44 | 33.61071 | -115.29087 | 36901 ft | 489 kts | 105° |
| 2026-05-05 00:44 | 33.60860 | -115.20937 | 36896 ft | 489 kts | 105° |
| 2026-05-05 00:45 | 33.60642 | -115.12774 | 36898 ft | 489 kts | 105° |
| 2026-05-05 00:45 | 33.60417 | -115.04614 | 36591 ft | 490 kts | 105° |
| 2026-05-05 00:45 | 33.60309 | -115.00532 | 36224 ft | 491 kts | 105° |
| 2026-05-05 00:46 | 33.60189 | -114.96391 | 35273 ft | 502 kts | 105° |
| 2026-05-05 00:46 | 33.60055 | -114.92160 | 34325 ft | 512 kts | 104° |
| 2026-05-05 00:46 | 33.59919 | -114.87861 | 33334 ft | 521 kts | 104° |
| 2026-05-05 00:46 | 33.59789 | -114.83482 | 32297 ft | 528 kts | 103° |
| 2026-05-05 00:47 | 33.59662 | -114.79063 | 31295 ft | 534 kts | 102° |
| 2026-05-05 00:47 | 33.59523 | -114.74591 | 30353 ft | 537 kts | 102° |
| 2026-05-05 00:47 | 33.59319 | -114.70175 | 29331 ft | 537 kts | 103° |
| 2026-05-05 00:47 | 33.59041 | -114.65710 | 28259 ft | 536 kts | 103° |
| 2026-05-05 00:48 | 33.58717 | -114.61261 | 27230 ft | 535 kts | 103° |
| 2026-05-05 00:48 | 33.58376 | -114.56823 | 26230 ft | 533 kts | 103° |
| 2026-05-05 00:48 | 33.58041 | -114.52422 | 25433 ft | 527 kts | 102° |
| 2026-05-05 00:48 | 33.57731 | -114.48101 | 25104 ft | 510 kts | 102° |
| 2026-05-05 00:49 | 33.57452 | -114.43942 | 24892 ft | 492 kts | 102° |
| 2026-05-05 00:49 | 33.57192 | -114.39936 | 24891 ft | 470 kts | 102° |
| 2026-05-05 00:49 | 33.56948 | -114.36113 | 24897 ft | 450 kts | 102° |
| 2026-05-05 00:49 | 33.56699 | -114.32398 | 24410 ft | 447 kts | 103° |
| 2026-05-05 00:50 | 33.56429 | -114.28675 | 23735 ft | 451 kts | 102° |
| 2026-05-05 00:50 | 33.56148 | -114.24924 | 22989 ft | 454 kts | 102° |
| 2026-05-05 00:50 | 33.55874 | -114.21217 | 22213 ft | 455 kts | 101° |
| 2026-05-05 00:50 | 33.55597 | -114.17378 | 21426 ft | 455 kts | 100° |
| 2026-05-05 00:51 | 33.55329 | -114.13614 | 20676 ft | 454 kts | 99° |
| 2026-05-05 00:51 | 33.55063 | -114.09852 | 19946 ft | 451 kts | 99° |
| 2026-05-05 00:51 | 33.54799 | -114.06109 | 19227 ft | 449 kts | 98° |
| 2026-05-05 00:51 | 33.54571 | -114.02890 | 18627 ft | 447 kts | 98° |
| 2026-05-05 00:52 | 33.54303 | -113.99190 | 17904 ft | 443 kts | 97° |
| 2026-05-05 00:52 | 33.54045 | -113.95566 | 17148 ft | 440 kts | 97° |
| 2026-05-05 00:52 | 33.53787 | -113.91921 | 16396 ft | 437 kts | 98° |
| 2026-05-05 00:52 | 33.53528 | -113.88315 | 15779 ft | 431 kts | 98° |
| 2026-05-05 00:53 | 33.53277 | -113.84807 | 15539 ft | 414 kts | 98° |
| 2026-05-05 00:53 | 33.53031 | -113.81400 | 15303 ft | 397 kts | 98° |
| 2026-05-05 00:53 | 33.52797 | -113.78204 | 15075 ft | 382 kts | 98° |
| 2026-05-05 00:53 | 33.52569 | -113.75096 | 14860 ft | 368 kts | 98° |
| 2026-05-05 00:54 | 33.52347 | -113.72072 | 14500 ft | 361 kts | 99° |
| 2026-05-05 00:54 | 33.52130 | -113.69139 | 14345 ft | 348 kts | 99° |
| 2026-05-05 00:54 | 33.51914 | -113.66288 | 14077 ft | 340 kts | 99° |
| 2026-05-05 00:54 | 33.51698 | -113.63483 | 13792 ft | 336 kts | 99° |
| 2026-05-05 00:55 | 33.51485 | -113.60704 | 13495 ft | 334 kts | 99° |
| 2026-05-05 00:55 | 33.51273 | -113.57935 | 13222 ft | 333 kts | 99° |
| 2026-05-05 00:55 | 33.51065 | -113.55183 | 12946 ft | 331 kts | 99° |
| 2026-05-05 00:55 | 33.50859 | -113.52443 | 12669 ft | 329 kts | 99° |
| 2026-05-05 00:56 | 33.50655 | -113.49722 | 12389 ft | 327 kts | 99° |
| 2026-05-05 00:56 | 33.50450 | -113.47011 | 12112 ft | 325 kts | 99° |
| 2026-05-05 00:56 | 33.50244 | -113.44321 | 11822 ft | 324 kts | 99° |
| 2026-05-05 00:56 | 33.50037 | -113.41638 | 11553 ft | 322 kts | 99° |
| 2026-05-05 00:57 | 33.49833 | -113.38979 | 11268 ft | 320 kts | 99° |
| 2026-05-05 00:57 | 33.49628 | -113.36325 | 11001 ft | 319 kts | 99° |
| 2026-05-05 00:57 | 33.49423 | -113.33686 | 10723 ft | 318 kts | 99° |
| 2026-05-05 00:57 | 33.49222 | -113.31055 | 10452 ft | 315 kts | 98° |
| 2026-05-05 00:58 | 33.49018 | -113.28445 | 10179 ft | 313 kts | 98° |
| 2026-05-05 00:58 | 33.48814 | -113.25853 | 9909 ft | 311 kts | 98° |
| 2026-05-05 00:58 | 33.48612 | -113.23287 | 9625 ft | 309 kts | 98° |
| 2026-05-05 00:58 | 33.48411 | -113.20732 | 9358 ft | 308 kts | 98° |
| 2026-05-05 00:59 | 33.48210 | -113.18184 | 9086 ft | 307 kts | 98° |
| 2026-05-05 00:59 | 33.48008 | -113.15643 | 8831 ft | 306 kts | 98° |
| 2026-05-05 00:59 | 33.47808 | -113.13115 | 8579 ft | 304 kts | 98° |
| 2026-05-05 00:59 | 33.47608 | -113.10603 | 8324 ft | 302 kts | 98° |
| 2026-05-05 01:00 | 33.47407 | -113.08094 | 8075 ft | 301 kts | 98° |
| 2026-05-05 01:00 | 33.47209 | -113.05590 | 7829 ft | 301 kts | 99° |
| 2026-05-05 01:00 | 33.47011 | -113.03105 | 7580 ft | 300 kts | 98° |
| 2026-05-05 01:00 | 33.46812 | -113.00625 | 7343 ft | 298 kts | 98° |
| 2026-05-05 01:01 | 33.46615 | -112.98153 | 7095 ft | 298 kts | 99° |
| 2026-05-05 01:01 | 33.46419 | -112.95694 | 6856 ft | 296 kts | 98° |
| 2026-05-05 01:01 | 33.46224 | -112.93237 | 6616 ft | 295 kts | 99° |
| 2026-05-05 01:01 | 33.46023 | -112.90793 | 6365 ft | 295 kts | 99° |
| 2026-05-05 01:02 | 33.45816 | -112.88355 | 6115 ft | 292 kts | 99° |
| 2026-05-05 01:02 | 33.45620 | -112.85947 | 5881 ft | 289 kts | 98° |
| 2026-05-05 01:02 | 33.45437 | -112.83553 | 5636 ft | 289 kts | 98° |
| 2026-05-05 01:02 | 33.45267 | -112.81197 | 5386 ft | 286 kts | 97° |
| 2026-05-05 01:03 | 33.45108 | -112.78834 | 5173 ft | 283 kts | 97° |
| 2026-05-05 01:03 | 33.44954 | -112.76490 | 4940 ft | 281 kts | 96° |
| 2026-05-05 01:03 | 33.44804 | -112.74171 | 4704 ft | 277 kts | 96° |
| 2026-05-05 01:03 | 33.44658 | -112.71910 | 4471 ft | 269 kts | 97° |
| 2026-05-05 01:04 | 33.44515 | -112.69709 | 4240 ft | 262 kts | 96° |
| 2026-05-05 01:04 | 33.44240 | -112.65520 | 3992 ft | 239 kts | 97° |
| 2026-05-05 01:04 | 33.44114 | -112.63610 | 4002 ft | 222 kts | 97° |
| 2026-05-05 01:05 | 33.43994 | -112.61826 | 3996 ft | 211 kts | 97° |
| 2026-05-05 01:05 | 33.43873 | -112.60082 | 4008 ft | 210 kts | 98° |
| 2026-05-05 01:05 | 33.43751 | -112.58334 | 4010 ft | 211 kts | 97° |
| 2026-05-05 01:05 | 33.43630 | -112.56580 | 3748 ft | 212 kts | 98° |
| 2026-05-05 01:06 | 33.43511 | -112.54818 | 3381 ft | 212 kts | 97° |
| 2026-05-05 01:06 | 33.43391 | -112.53047 | 2996 ft | 214 kts | 97° |
| 2026-05-05 01:06 | 33.43271 | -112.51268 | 2627 ft | 215 kts | 98° |
| 2026-05-05 01:06 | 33.43153 | -112.49513 | 2480 ft | 204 kts | 97° |
| 2026-05-05 01:07 | 33.43045 | -112.47869 | 2492 ft | 193 kts | 98° |
| 2026-05-05 01:07 | 33.42938 | -112.46273 | 2494 ft | 192 kts | 98° |
| 2026-05-05 01:07 | 33.42827 | -112.44689 | 2497 ft | 191 kts | 97° |
| 2026-05-05 01:07 | 33.42758 | -112.43641 | 2495 ft | 191 kts | 97° |
| 2026-05-05 01:08 | 33.42655 | -112.42055 | 2494 ft | 190 kts | 97° |
| 2026-05-05 01:08 | 33.42555 | -112.40484 | 2493 ft | 189 kts | 96° |
| 2026-05-05 01:08 | 33.42457 | -112.38913 | 2490 ft | 189 kts | 97° |
| 2026-05-05 01:08 | 33.42358 | -112.37344 | 2497 ft | 189 kts | 97° |
| 2026-05-05 01:09 | 33.42258 | -112.35776 | 2499 ft | 189 kts | 96° |
| 2026-05-05 01:09 | 33.42155 | -112.34195 | 2495 ft | 192 kts | 95° |
| 2026-05-05 01:09 | 33.42401 | -112.32653 | 2494 ft | 191 kts | 59° |
| 2026-05-05 01:09 | 33.43180 | -112.31467 | 2506 ft | 170 kts | 46° |
| 2026-05-05 01:10 | 33.43963 | -112.30486 | 2489 ft | 156 kts | 45° |
| 2026-05-05 01:10 | 33.44698 | -112.29584 | 2492 ft | 150 kts | 44° |
| 2026-05-05 01:10 | 33.45415 | -112.28708 | 2471 ft | 145 kts | 46° |
| 2026-05-05 01:10 | 33.46127 | -112.27851 | 2481 ft | 145 kts | 45° |
| 2026-05-05 01:11 | 33.46828 | -112.27008 | 2480 ft | 143 kts | 44° |
| 2026-05-05 01:11 | 33.47542 | -112.26145 | 2482 ft | 143 kts | 44° |
| 2026-05-05 01:11 | 33.48238 | -112.25315 | 2468 ft | 143 kts | 39° |
| 2026-05-05 01:11 | 33.49164 | -112.25033 | 2480 ft | 139 kts | 341° |
| 2026-05-05 01:12 | 33.49841 | -112.25713 | 2478 ft | 127 kts | 285° |
| 2026-05-05 01:12 | 33.49825 | -112.26732 | 2474 ft | 123 kts | 254° |
| 2026-05-05 01:12 | 33.49588 | -112.27719 | 2472 ft | 124 kts | 251° |
| 2026-05-05 01:12 | 33.49324 | -112.28696 | 2471 ft | 126 kts | 249° |
| 2026-05-05 01:13 | 33.49049 | -112.29692 | 2481 ft | 125 kts | 249° |
| 2026-05-05 01:13 | 33.48764 | -112.30675 | 2479 ft | 125 kts | 249° |
| 2026-05-05 01:13 | 33.48454 | -112.31648 | 2470 ft | 127 kts | 239° |
| 2026-05-05 01:13 | 33.47716 | -112.32156 | 2473 ft | 125 kts | 197° |
| 2026-05-05 01:14 | 33.46954 | -112.32623 | 2469 ft | 123 kts | 219° |
| 2026-05-05 01:14 | 33.46395 | -112.33410 | 2214 ft | 126 kts | 232° |
| 2026-05-05 01:14 | 33.45813 | -112.34213 | 1872 ft | 127 kts | 225° |
| 2026-05-05 01:14 | 33.45170 | -112.34907 | 1649 ft | 123 kts | 218° |
| 2026-05-05 01:15 | 33.44520 | -112.35519 | 1434 ft | 120 kts | 218° |
| 2026-05-05 01:15 | 33.43851 | -112.36131 | 1265 ft | 122 kts | 216° |
| 2026-05-05 01:15 | 33.43179 | -112.36754 | 1072 ft | 121 kts | 215° |
| 2026-05-05 01:15 | 33.42530 | -112.37351 | 965 ft | 106 kts | 217° |
| 2026-05-05 01:16 | 33.42078 | -112.37768 | 956 ft | 64 kts | 218° |
| 2026-05-05 01:16 | 33.41876 | -112.37947 | 956 ft | 11 kts | 189° |
| 2026-05-05 01:16 | 33.41841 | -112.37907 | 956 ft | 12 kts | 129° |
| 2026-05-05 01:16 | 33.41856 | -112.37809 | 953 ft | 12 kts | 36° |
| 2026-05-05 01:17 | 33.41871 | -112.37796 | 954 ft | 0 kts | 36° |
| 2026-05-05 01:17 | 33.41887 | -112.37783 | 952 ft | 6 kts | 36° |
| 2026-05-05 01:17 | 33.41933 | -112.37741 | 953 ft | 11 kts | 38° |
| 2026-05-05 01:18 | 33.42004 | -112.37674 | 954 ft | 15 kts | 39° |
| 2026-05-05 01:18 | 33.42092 | -112.37592 | 957 ft | 17 kts | 37° |
| 2026-05-05 01:18 | 33.42192 | -112.37500 | 958 ft | 20 kts | 38° |
| 2026-05-05 01:18 | 33.42304 | -112.37392 | 961 ft | 21 kts | 38° |
| 2026-05-05 01:19 | 33.42427 | -112.37276 | 967 ft | 24 kts | 38° |
| 2026-05-05 01:19 | 33.42570 | -112.37145 | 969 ft | 27 kts | 38° |
| 2026-05-05 01:19 | 33.42711 | -112.37013 | 967 ft | 19 kts | 38° |
| 2026-05-05 01:19 | 33.42738 | -112.36929 | 968 ft | 7 kts | 123° |
| 2026-05-05 01:20 | 33.42725 | -112.36855 | 968 ft | 11 kts | 83° |
| 2026-05-05 01:20 | 33.42739 | -112.36846 | 968 ft | 1 kts | 319° |
| 2026-05-05 01:20 | 33.42737 | -112.36852 | 968 ft | 0 kts | 269° |
| 2026-05-05 01:20 | 33.42737 | -112.36853 | 968 ft | 0 kts | 269° |
| 2026-05-05 01:22 | 33.42737 | -112.36852 | 968 ft | 0 kts | 269° |
| 2026-05-05 01:31 | 33.42737 | -112.36851 | 969 ft | 0 kts | 269° |
| 2026-05-05 01:31 | 33.42735 | -112.36860 | 967 ft | 1 kts | 239° |
| 2026-05-05 01:32 | 33.42731 | -112.36859 | 967 ft | 0 kts | 199° |
| 2026-05-05 01:32 | 33.42720 | -112.36862 | 966 ft | 0 kts | 196° |
| 2026-05-05 01:32 | 33.42709 | -112.36854 | 968 ft | 4 kts | 144° |
| 2026-05-05 01:32 | 33.42660 | -112.36791 | 964 ft | 14 kts | 117° |
| 2026-05-05 01:33 | 33.42680 | -112.36713 | 966 ft | 8 kts | 30° |
| 2026-05-05 01:33 | 33.42724 | -112.36672 | 965 ft | 8 kts | 40° |
| 2026-05-05 01:33 | 33.42737 | -112.36659 | 966 ft | 0 kts | 40° |
| 2026-05-05 01:40 | 33.42737 | -112.36660 | 967 ft | 0 kts | 40° |
| 2026-05-05 01:42 | 33.42736 | -112.36660 | 967 ft | 0 kts | 40° |
| 2026-05-05 01:54 | 33.42736 | -112.36661 | 967 ft | 0 kts | 40° |
| 2026-05-05 01:56 | 33.42735 | -112.36661 | 967 ft | 0 kts | 40° |